SWA520 PHOG-PHTO
Flight info
| Callsign | SWA520 |
|---|---|
| Flight time | 0h 28m |
| Altitude | 15000 |
| Route | ONOHI2 BARBY PARIS V15 ITO |
| Aircraft | B38M/M-SDE1FGHILORVWXY/HB1 |
Departure
| Time | 2026-04-26 00:17 |
|---|---|
| Airport | Kahului International Airport (PHOG) |
Arrival
| Time | 2026-04-26 00:45 |
|---|---|
| Airport | Hilo International Airport (PHTO) |
| Time | Latitude | Longitude | Altitude | Speed | Heading |
|---|---|---|---|---|---|
| 2026-04-25 23:48 | 20.89286 | -156.43674 | 54 ft | 0 kts | 304° |
| 2026-04-26 00:02 | 20.89286 | -156.43673 | 55 ft | 0 kts | 304° |
| 2026-04-26 00:05 | 20.89285 | -156.43672 | 55 ft | 2 kts | 304° |
| 2026-04-26 00:06 | 20.89275 | -156.43657 | 52 ft | 3 kts | 304° |
| 2026-04-26 00:06 | 20.89265 | -156.43641 | 56 ft | 3 kts | 304° |
| 2026-04-26 00:06 | 20.89255 | -156.43626 | 49 ft | 3 kts | 304° |
| 2026-04-26 00:06 | 20.89245 | -156.43611 | 49 ft | 2 kts | 304° |
| 2026-04-26 00:07 | 20.89236 | -156.43597 | 49 ft | 0 kts | 304° |
| 2026-04-26 00:07 | 20.89238 | -156.43599 | 58 ft | 0 kts | 304° |
| 2026-04-26 00:10 | 20.89237 | -156.43599 | 58 ft | 0 kts | 304° |
| 2026-04-26 00:10 | 20.89238 | -156.43602 | 57 ft | 0 kts | 280° |
| 2026-04-26 00:10 | 20.89232 | -156.43608 | 53 ft | 3 kts | 226° |
| 2026-04-26 00:11 | 20.89169 | -156.43632 | 53 ft | 16 kts | 195° |
| 2026-04-26 00:11 | 20.89065 | -156.43682 | 63 ft | 5 kts | 216° |
| 2026-04-26 00:11 | 20.89049 | -156.43695 | 63 ft | 4 kts | 214° |
| 2026-04-26 00:11 | 20.89023 | -156.43707 | 59 ft | 4 kts | 186° |
| 2026-04-26 00:12 | 20.89002 | -156.43703 | 63 ft | 0 kts | 163° |
| 2026-04-26 00:14 | 20.88969 | -156.43674 | 65 ft | 14 kts | 127° |
| 2026-04-26 00:15 | 20.88978 | -156.43584 | 62 ft | 11 kts | 31° |
| 2026-04-26 00:15 | 20.88988 | -156.43578 | 57 ft | 0 kts | 32° |
| 2026-04-26 00:16 | 20.89028 | -156.43549 | 60 ft | 29 kts | 34° |
| 2026-04-26 00:16 | 20.89422 | -156.43256 | 49 ft | 102 kts | 34° |
| 2026-04-26 00:16 | 20.89835 | -156.42948 | 39 ft | 119 kts | 33° |
| 2026-04-26 00:16 | 20.90545 | -156.42387 | 61 ft | 131 kts | 36° |
| 2026-04-26 00:17 | 20.91271 | -156.41745 | 197 ft | 149 kts | 38° |
| 2026-04-26 00:17 | 20.92183 | -156.40923 | 644 ft | 183 kts | 38° |
| 2026-04-26 00:17 | 20.93177 | -156.40029 | 1640 ft | 197 kts | 41° |
| 2026-04-26 00:17 | 20.94079 | -156.38886 | 2367 ft | 206 kts | 65° |
| 2026-04-26 00:18 | 20.94264 | -156.37347 | 3112 ft | 219 kts | 103° |
| 2026-04-26 00:18 | 20.93446 | -156.35937 | 3794 ft | 235 kts | 134° |
| 2026-04-26 00:18 | 20.92234 | -156.34691 | 4394 ft | 250 kts | 132° |
| 2026-04-26 00:18 | 20.91016 | -156.33278 | 4915 ft | 266 kts | 129° |
| 2026-04-26 00:19 | 20.89820 | -156.31749 | 5674 ft | 267 kts | 127° |
| 2026-04-26 00:19 | 20.88903 | -156.30039 | 6497 ft | 267 kts | 106° |
| 2026-04-26 00:19 | 20.88598 | -156.28059 | 7084 ft | 276 kts | 97° |
| 2026-04-26 00:19 | 20.88370 | -156.25899 | 6976 ft | 308 kts | 96° |
| 2026-04-26 00:20 | 20.88158 | -156.23576 | 6964 ft | 328 kts | 95° |
| 2026-04-26 00:20 | 20.87947 | -156.21087 | 6962 ft | 344 kts | 95° |
| 2026-04-26 00:20 | 20.87739 | -156.18491 | 6958 ft | 354 kts | 95° |
| 2026-04-26 00:20 | 20.87542 | -156.15934 | 6976 ft | 325 kts | 94° |
| 2026-04-26 00:21 | 20.87370 | -156.13675 | 6979 ft | 289 kts | 94° |
| 2026-04-26 00:21 | 20.87213 | -156.11589 | 6816 ft | 278 kts | 94° |
| 2026-04-26 00:21 | 20.87059 | -156.09541 | 7545 ft | 274 kts | 94° |
| 2026-04-26 00:21 | 20.86905 | -156.07505 | 8238 ft | 278 kts | 94° |
| 2026-04-26 00:22 | 20.86749 | -156.05427 | 8870 ft | 282 kts | 94° |
| 2026-04-26 00:22 | 20.86590 | -156.03325 | 9503 ft | 285 kts | 94° |
| 2026-04-26 00:22 | 20.86426 | -156.01199 | 10099 ft | 290 kts | 95° |
| 2026-04-26 00:22 | 20.86139 | -155.99028 | 10413 ft | 302 kts | 107° |
| 2026-04-26 00:23 | 20.85147 | -155.97027 | 10572 ft | 320 kts | 130° |
| 2026-04-26 00:23 | 20.83590 | -155.95298 | 11308 ft | 328 kts | 132° |
| 2026-04-26 00:23 | 20.81983 | -155.93487 | 11936 ft | 341 kts | 133° |
| 2026-04-26 00:23 | 20.80329 | -155.91642 | 12780 ft | 345 kts | 133° |
| 2026-04-26 00:24 | 20.78651 | -155.89784 | 13587 ft | 351 kts | 133° |
| 2026-04-26 00:24 | 20.76938 | -155.87896 | 14305 ft | 356 kts | 133° |
| 2026-04-26 00:24 | 20.75201 | -155.85983 | 14843 ft | 361 kts | 133° |
| 2026-04-26 00:24 | 20.73434 | -155.84040 | 14907 ft | 372 kts | 133° |
| 2026-04-26 00:25 | 20.71588 | -155.82011 | 14909 ft | 390 kts | 133° |
| 2026-04-26 00:25 | 20.69674 | -155.79907 | 14928 ft | 397 kts | 133° |
| 2026-04-26 00:25 | 20.67733 | -155.77775 | 14943 ft | 402 kts | 133° |
| 2026-04-26 00:25 | 20.65780 | -155.75630 | 14962 ft | 403 kts | 133° |
| 2026-04-26 00:26 | 20.63829 | -155.73489 | 14972 ft | 403 kts | 133° |
| 2026-04-26 00:26 | 20.61874 | -155.71344 | 14976 ft | 403 kts | 133° |
| 2026-04-26 00:26 | 20.60575 | -155.69919 | 14974 ft | 403 kts | 133° |
| 2026-04-26 00:26 | 20.58618 | -155.67773 | 14978 ft | 404 kts | 133° |
| 2026-04-26 00:27 | 20.56660 | -155.65628 | 14976 ft | 404 kts | 133° |
| 2026-04-26 00:27 | 20.54061 | -155.62780 | 14978 ft | 404 kts | 133° |
| 2026-04-26 00:27 | 20.52104 | -155.60637 | 14976 ft | 404 kts | 133° |
| 2026-04-26 00:27 | 20.50775 | -155.59183 | 14974 ft | 404 kts | 133° |
| 2026-04-26 00:28 | 20.48841 | -155.57066 | 14975 ft | 404 kts | 133° |
| 2026-04-26 00:28 | 20.46877 | -155.54917 | 14972 ft | 404 kts | 133° |
| 2026-04-26 00:28 | 20.44914 | -155.52770 | 14973 ft | 404 kts | 133° |
| 2026-04-26 00:28 | 20.42952 | -155.50626 | 14977 ft | 404 kts | 133° |
| 2026-04-26 00:29 | 20.40987 | -155.48480 | 14977 ft | 404 kts | 134° |
| 2026-04-26 00:29 | 20.39023 | -155.46334 | 14975 ft | 404 kts | 133° |
| 2026-04-26 00:29 | 20.37058 | -155.44189 | 14977 ft | 404 kts | 133° |
| 2026-04-26 00:29 | 20.35092 | -155.42043 | 14977 ft | 404 kts | 133° |
| 2026-04-26 00:30 | 20.33148 | -155.39921 | 15026 ft | 391 kts | 133° |
| 2026-04-26 00:30 | 20.31291 | -155.37897 | 15048 ft | 372 kts | 133° |
| 2026-04-26 00:30 | 20.29512 | -155.35958 | 14910 ft | 359 kts | 133° |
| 2026-04-26 00:30 | 20.27791 | -155.34082 | 14659 ft | 354 kts | 133° |
| 2026-04-26 00:31 | 20.26057 | -155.32193 | 14256 ft | 358 kts | 133° |
| 2026-04-26 00:31 | 20.24330 | -155.30313 | 13830 ft | 361 kts | 133° |
| 2026-04-26 00:31 | 20.22574 | -155.28401 | 13333 ft | 361 kts | 134° |
| 2026-04-26 00:31 | 20.20824 | -155.26496 | 12858 ft | 359 kts | 134° |
| 2026-04-26 00:32 | 20.19079 | -155.24598 | 12395 ft | 357 kts | 134° |
| 2026-04-26 00:32 | 20.17325 | -155.22747 | 11926 ft | 354 kts | 140° |
| 2026-04-26 00:32 | 20.13001 | -155.20381 | 11066 ft | 345 kts | 156° |
| 2026-04-26 00:33 | 20.10851 | -155.19354 | 10912 ft | 332 kts | 156° |
| 2026-04-26 00:33 | 20.08775 | -155.18368 | 10736 ft | 321 kts | 156° |
| 2026-04-26 00:33 | 20.06765 | -155.17417 | 10563 ft | 311 kts | 156° |
| 2026-04-26 00:33 | 20.04820 | -155.16497 | 10415 ft | 300 kts | 156° |
| 2026-04-26 00:34 | 20.02945 | -155.15611 | 10251 ft | 291 kts | 157° |
| 2026-04-26 00:34 | 20.01133 | -155.14732 | 10063 ft | 283 kts | 152° |
| 2026-04-26 00:34 | 19.99651 | -155.13373 | 9675 ft | 285 kts | 125° |
| 2026-04-26 00:34 | 19.98865 | -155.11447 | 9294 ft | 286 kts | 99° |
| 2026-04-26 00:35 | 19.98866 | -155.09352 | 8959 ft | 284 kts | 81° |
| 2026-04-26 00:35 | 19.99170 | -155.07281 | 8623 ft | 283 kts | 80° |
| 2026-04-26 00:35 | 19.99464 | -155.05216 | 8266 ft | 282 kts | 85° |
| 2026-04-26 00:35 | 19.99174 | -155.03176 | 7886 ft | 281 kts | 113° |
| 2026-04-26 00:36 | 19.98112 | -155.01458 | 7589 ft | 277 kts | 130° |
| 2026-04-26 00:36 | 19.96878 | -154.99900 | 7281 ft | 274 kts | 129° |
| 2026-04-26 00:36 | 19.95646 | -154.98361 | 6957 ft | 272 kts | 130° |
| 2026-04-26 00:36 | 19.94437 | -154.96863 | 6635 ft | 270 kts | 130° |
| 2026-04-26 00:37 | 19.93212 | -154.95355 | 6299 ft | 268 kts | 130° |
| 2026-04-26 00:37 | 19.91994 | -154.93861 | 5971 ft | 267 kts | 129° |
| 2026-04-26 00:37 | 19.90784 | -154.92378 | 5642 ft | 265 kts | 129° |
| 2026-04-26 00:37 | 19.89580 | -154.90906 | 5321 ft | 262 kts | 129° |
| 2026-04-26 00:38 | 19.88388 | -154.89449 | 5002 ft | 260 kts | 129° |
| 2026-04-26 00:38 | 19.87206 | -154.88005 | 4696 ft | 258 kts | 129° |
| 2026-04-26 00:38 | 19.86036 | -154.86575 | 4458 ft | 252 kts | 129° |
| 2026-04-26 00:38 | 19.84908 | -154.85198 | 4322 ft | 242 kts | 129° |
| 2026-04-26 00:39 | 19.83682 | -154.84021 | 4163 ft | 236 kts | 151° |
| 2026-04-26 00:39 | 19.82123 | -154.83600 | 4027 ft | 229 kts | 175° |
| 2026-04-26 00:39 | 19.80571 | -154.83560 | 3932 ft | 218 kts | 176° |
| 2026-04-26 00:39 | 19.79109 | -154.83534 | 3873 ft | 202 kts | 176° |
| 2026-04-26 00:40 | 19.77745 | -154.83518 | 3713 ft | 191 kts | 176° |
| 2026-04-26 00:40 | 19.76429 | -154.83506 | 3562 ft | 189 kts | 177° |
| 2026-04-26 00:40 | 19.75113 | -154.83501 | 3434 ft | 189 kts | 177° |
| 2026-04-26 00:40 | 19.73805 | -154.83579 | 3243 ft | 190 kts | 194° |
| 2026-04-26 00:41 | 19.72729 | -154.84332 | 2987 ft | 191 kts | 232° |
| 2026-04-26 00:41 | 19.72240 | -154.85616 | 2771 ft | 190 kts | 264° |
| 2026-04-26 00:41 | 19.72159 | -154.87007 | 2566 ft | 188 kts | 269° |
| 2026-04-26 00:41 | 19.72135 | -154.88402 | 2352 ft | 190 kts | 271° |
| 2026-04-26 00:42 | 19.72133 | -154.89805 | 2145 ft | 190 kts | 271° |
| 2026-04-26 00:42 | 19.72132 | -154.91202 | 1915 ft | 188 kts | 272° |
| 2026-04-26 00:42 | 19.72133 | -154.92584 | 1717 ft | 183 kts | 271° |
| 2026-04-26 00:42 | 19.72132 | -154.93911 | 1520 ft | 177 kts | 272° |
| 2026-04-26 00:43 | 19.72134 | -154.95209 | 1308 ft | 172 kts | 271° |
| 2026-04-26 00:43 | 19.72134 | -154.96411 | 1128 ft | 155 kts | 270° |
| 2026-04-26 00:43 | 19.72133 | -154.97550 | 1104 ft | 154 kts | 271° |
| 2026-04-26 00:43 | 19.72131 | -154.98648 | 891 ft | 148 kts | 274° |
| 2026-04-26 00:44 | 19.72141 | -154.99728 | 679 ft | 145 kts | 272° |
| 2026-04-26 00:44 | 19.72143 | -155.00794 | 466 ft | 144 kts | 273° |
| 2026-04-26 00:44 | 19.72143 | -155.01851 | 282 ft | 143 kts | 274° |
| 2026-04-26 00:44 | 19.72144 | -155.02907 | 105 ft | 139 kts | 274° |
| 2026-04-26 00:45 | 19.72148 | -155.03845 | 48 ft | 108 kts | 269° |
| 2026-04-26 00:45 | 19.72148 | -155.04439 | 41 ft | 65 kts | 270° |
| 2026-04-26 00:45 | 19.72146 | -155.04776 | 39 ft | 31 kts | 271° |
| 2026-04-26 00:45 | 19.72127 | -155.04902 | 37 ft | 7 kts | 225° |
| 2026-04-26 00:46 | 19.72072 | -155.04918 | 40 ft | 10 kts | 181° |
| 2026-04-26 00:46 | 19.72017 | -155.04888 | 40 ft | 8 kts | 110° |
| 2026-04-26 00:46 | 19.72017 | -155.04801 | 41 ft | 16 kts | 89° |
| 2026-04-26 00:46 | 19.72017 | -155.04644 | 41 ft | 26 kts | 90° |
| 2026-04-26 00:47 | 19.72018 | -155.04423 | 43 ft | 33 kts | 91° |
| 2026-04-26 00:47 | 19.72013 | -155.04191 | 44 ft | 27 kts | 90° |
| 2026-04-26 00:47 | 19.71960 | -155.04052 | 45 ft | 18 kts | 160° |
| 2026-04-26 00:47 | 19.71842 | -155.04055 | 44 ft | 18 kts | 180° |
| 2026-04-26 00:48 | 19.71713 | -155.04055 | 44 ft | 16 kts | 180° |
| 2026-04-26 00:48 | 19.71624 | -155.04040 | 44 ft | 13 kts | 174° |
| 2026-04-26 00:48 | 19.71563 | -155.04040 | 44 ft | 0 kts | 180° |